»·PEaware :: N196DA KBUR-KLAS

N196DA :: KBUR-KLAS

FLIGHT INFORMATION

Flight Status: Arrived
Operator: Privately registered:
United States
More flights under this callsign
Pilot: Ednei R. (17295)
Aircraft: BOEING 737-200
(B732)
More flights by this aircraft type
Origin: KBUR Bob Hope-Burbank
United States
Destination: KLAS McCarran Intl
United States
More flights between these airports :: More routes between these airports
Route: +SLAPP1 MISEN KEPEC6
File this flight plan on PilotEdge
Remarks:
Altitude:
(Current/Filed)
27,000ft
Speed:
(Current/Filed)
280kts
Departed: 29-Jul-18 09:29 AM
Arrived: 29-Jul-18 10:15 AM
Distance/Time
Traveled:
195nm/0:46
Distance/Time
To Go:
Arrived

Flight Plot

Page will automatically refresh every two minutes.

Flight plan parsing failed; only flown route is shown


Map Options




Map Legend


Flown Route
Filed Route
Departure Airport
Arrival Airport
Navaid (VOR, NDB)
Fix

Horizontal Profiles

Position Reports

Time Latitude Longitude Heading Altitude Ground
Speed
29-Jul-18 09:12 34.200202 -118.358746 263 726ft 0kts
29-Jul-18 09:13 34.200202 -118.358746 263 726ft 0kts
29-Jul-18 09:14 34.200202 -118.358746 263 726ft 0kts
29-Jul-18 09:15 34.200202 -118.358746 263 726ft 0kts
29-Jul-18 09:16 34.200202 -118.358746 263 726ft 0kts
29-Jul-18 09:17 34.200202 -118.358746 263 726ft 0kts
29-Jul-18 09:18 34.199741 -118.358859 133 724ft 5kts
29-Jul-18 09:19 34.198904 -118.357734 94 718ft 4kts
29-Jul-18 09:20 34.200324 -118.355855 347 718ft 9kts
29-Jul-18 09:21 34.203151 -118.356609 347 730ft 13kts
29-Jul-18 09:22 34.206632 -118.357557 345 745ft 9kts
29-Jul-18 09:23 34.208769 -118.358139 349 758ft 9kts
29-Jul-18 09:24 34.210915 -118.358698 347 764ft 12kts
29-Jul-18 09:25 34.211582 -118.358991 321 768ft 0kts
29-Jul-18 09:26 34.211582 -118.358991 321 768ft 0kts
29-Jul-18 09:27 34.211582 -118.358991 321 768ft 0kts
29-Jul-18 09:28 34.211582 -118.358991 321 768ft 0kts
29-Jul-18 09:29 34.211351 -118.360200 165 770ft 0kts
29-Jul-18 09:30 34.190618 -118.354263 167 1334ft 151kts
29-Jul-18 09:31 34.150817 -118.377566 220 3286ft 197kts
29-Jul-18 09:32 34.104331 -118.424296 221 5588ft 237kts
29-Jul-18 09:33 34.115723 -118.489507 341 8168ft 256kts
29-Jul-18 09:34 34.191680 -118.501946 1 9011ft 309kts
29-Jul-18 09:35 34.266591 -118.452561 32 10010ft 291kts
29-Jul-18 09:36 34.341083 -118.398558 30 11493ft 338kts
29-Jul-18 09:37 34.424782 -118.350107 21 13339ft 361kts
29-Jul-18 09:38 34.499782 -118.294533 38 15697ft 353kts
29-Jul-18 09:39 34.574972 -118.220451 39 18062ft 346kts
29-Jul-18 09:40 34.649422 -118.143690 52 19116ft 374kts
29-Jul-18 09:41 34.682945 -118.018333 78 19121ft 408kts
29-Jul-18 09:42 34.696410 -117.888541 86 21563ft 356kts
29-Jul-18 09:43 34.703777 -117.770061 87 22634ft 354kts
29-Jul-18 09:44 34.708832 -117.648014 88 23127ft 374kts
29-Jul-18 09:45 34.715124 -117.515934 79 23121ft 413kts
29-Jul-18 09:46 34.749118 -117.378051 73 23132ft 434kts
29-Jul-18 09:47 34.785761 -117.239196 73 23535ft 430kts
29-Jul-18 09:48 34.818821 -117.113957 74 26617ft 364kts
29-Jul-18 09:49 34.849923 -116.995342 74 27084ft 381kts
29-Jul-18 09:50 34.883075 -116.868458 73 27077ft 409kts
29-Jul-18 09:51 34.920682 -116.732746 62 27055ft 441kts
29-Jul-18 09:52 34.989290 -116.605120 56 26456ft 452kts
29-Jul-18 09:53 35.059157 -116.480717 55 24127ft 432kts
29-Jul-18 09:54 35.129654 -116.370718 46 24107ft 422kts
29-Jul-18 09:55 35.209224 -116.270137 45 24103ft 416kts
29-Jul-18 09:56 35.289445 -116.169291 45 21927ft 409kts
29-Jul-18 09:57 35.367257 -116.071242 46 19629ft 396kts
29-Jul-18 09:58 35.442736 -115.975860 46 17259ft 387kts
29-Jul-18 09:59 35.516497 -115.882384 46 14960ft 376kts
29-Jul-18 10:00 35.587863 -115.791693 46 13023ft 356kts
29-Jul-18 10:01 35.650442 -115.711959 46 13038ft 311kts
29-Jul-18 10:02 35.711504 -115.633949 46 13028ft 319kts
29-Jul-18 10:03 35.784219 -115.578432 5 13043ft 318kts
29-Jul-18 10:04 35.872847 -115.569738 2 13024ft 320kts
29-Jul-18 10:05 35.959141 -115.552575 38 13018ft 318kts
29-Jul-18 10:06 36.001409 -115.462443 66 12010ft 302kts
29-Jul-18 10:07 36.027330 -115.367234 92 11013ft 274kts
29-Jul-18 10:08 36.023299 -115.277067 96 9715ft 274kts
29-Jul-18 10:09 36.017207 -115.186506 97 8912ft 251kts
29-Jul-18 10:10 36.011941 -115.097873 96 7258ft 266kts
29-Jul-18 10:11 36.005188 -115.010234 93 5884ft 235kts
29-Jul-18 10:12 36.044471 -114.970628 350 5032ft 203kts
29-Jul-18 10:13 36.076918 -115.013343 263 3871ft 189kts
29-Jul-18 10:14 36.073554 -115.076423 270 2939ft 170kts
29-Jul-18 10:15 36.073652 -115.128561 266 2055ft 146kts
29-Jul-18 10:16 36.074945 -115.146339 316 2105ft 12kts
29-Jul-18 10:17 36.075202 -115.146519 342 2105ft 0kts
29-Jul-18 10:18 36.075202 -115.146519 342 2105ft 0kts
29-Jul-18 10:19 36.075202 -115.146519 342 2105ft 0kts
29-Jul-18 10:20 36.075767 -115.146692 350 2105ft 12kts
29-Jul-18 10:21 36.077448 -115.146656 7 2104ft 0kts
29-Jul-18 10:22 36.077770 -115.146428 60 2102ft 0kts
29-Jul-18 10:23 36.077722 -115.145784 100 2100ft 9kts
29-Jul-18 10:24 36.078285 -115.141982 94 2086ft 14kts
29-Jul-18 10:25 36.078285 -115.136079 90 2068ft 18kts
29-Jul-18 10:26 36.078309 -115.127059 88 2044ft 13kts
29-Jul-18 10:27 36.081131 -115.126399 20 2037ft 8kts
29-Jul-18 10:28 36.081235 -115.125850 90 2036ft 0kts
29-Jul-18 10:29 36.081235 -115.125850 90 2036ft 0kts
29-Jul-18 10:30 36.081235 -115.125850 90 2036ft 0kts

Navigation Log

Ident Type
Flight plan parsing failed, navigation log unavailable